OVO711B ZPPP-ZGSZ
Flight info
| Callsign | OVO711B |
|---|---|
| Flight time | 1h 28m |
| Altitude | 41100 |
| Route | LXI A599 POU W7 SAREX |
| Aircraft | A359/H-SDE2E3GHIJ3J4J5LM1ORWXY/LB1D1 |
Departure
| Time | 2026-04-27 11:18 |
|---|---|
| Airport | Kunming Changshui International Airport (ZPPP) |
Arrival
| Time | 2026-04-27 12:46 |
|---|---|
| Airport | Shenzhen Bao'an International Airport (ZGSZ) |
| Time | Latitude | Longitude | Altitude | Speed | Heading |
|---|---|---|---|---|---|
| 2026-04-27 10:14 | 25.10369 | 102.93498 | 6902 ft | 0 kts | 257° |
| 2026-04-27 10:52 | 25.10372 | 102.93513 | 6902 ft | 4 kts | 256° |
| 2026-04-27 10:52 | 25.10380 | 102.93541 | 6902 ft | 4 kts | 249° |
| 2026-04-27 10:53 | 25.10390 | 102.93568 | 6902 ft | 4 kts | 238° |
| 2026-04-27 10:53 | 25.10421 | 102.93601 | 6902 ft | 3 kts | 175° |
| 2026-04-27 10:53 | 25.10429 | 102.93600 | 6902 ft | 0 kts | 128° |
| 2026-04-27 11:00 | 25.10421 | 102.93611 | 6902 ft | 0 kts | 128° |
| 2026-04-27 11:02 | 25.10412 | 102.93610 | 6902 ft | 2 kts | 184° |
| 2026-04-27 11:02 | 25.10409 | 102.93606 | 6902 ft | 0 kts | 211° |
| 2026-04-27 11:08 | 25.10388 | 102.93608 | 6901 ft | 4 kts | 165° |
| 2026-04-27 11:08 | 25.10371 | 102.93630 | 6901 ft | 5 kts | 121° |
| 2026-04-27 11:08 | 25.10355 | 102.93673 | 6901 ft | 7 kts | 108° |
| 2026-04-27 11:09 | 25.10344 | 102.93710 | 6901 ft | 8 kts | 110° |
| 2026-04-27 11:09 | 25.10316 | 102.93765 | 6900 ft | 8 kts | 131° |
| 2026-04-27 11:09 | 25.10276 | 102.93817 | 6900 ft | 9 kts | 130° |
| 2026-04-27 11:09 | 25.10231 | 102.93878 | 6900 ft | 11 kts | 129° |
| 2026-04-27 11:10 | 25.10181 | 102.93946 | 6900 ft | 12 kts | 129° |
| 2026-04-27 11:10 | 25.10126 | 102.94021 | 6900 ft | 13 kts | 129° |
| 2026-04-27 11:10 | 25.10066 | 102.94102 | 6901 ft | 14 kts | 129° |
| 2026-04-27 11:10 | 25.10021 | 102.94197 | 6901 ft | 14 kts | 90° |
| 2026-04-27 11:11 | 25.10066 | 102.94271 | 6902 ft | 12 kts | 44° |
| 2026-04-27 11:11 | 25.10132 | 102.94334 | 6902 ft | 13 kts | 41° |
| 2026-04-27 11:11 | 25.10207 | 102.94397 | 6902 ft | 14 kts | 38° |
| 2026-04-27 11:11 | 25.10288 | 102.94467 | 6902 ft | 15 kts | 38° |
| 2026-04-27 11:12 | 25.10377 | 102.94544 | 6901 ft | 17 kts | 38° |
| 2026-04-27 11:12 | 25.10476 | 102.94630 | 6901 ft | 19 kts | 38° |
| 2026-04-27 11:12 | 25.10582 | 102.94720 | 6901 ft | 20 kts | 38° |
| 2026-04-27 11:12 | 25.10695 | 102.94818 | 6901 ft | 21 kts | 38° |
| 2026-04-27 11:13 | 25.10812 | 102.94920 | 6902 ft | 22 kts | 38° |
| 2026-04-27 11:13 | 25.10934 | 102.95026 | 6902 ft | 23 kts | 38° |
| 2026-04-27 11:13 | 25.11059 | 102.95134 | 6903 ft | 23 kts | 38° |
| 2026-04-27 11:13 | 25.11188 | 102.95247 | 6902 ft | 24 kts | 38° |
| 2026-04-27 11:14 | 25.11325 | 102.95365 | 6902 ft | 25 kts | 38° |
| 2026-04-27 11:14 | 25.11467 | 102.95489 | 6901 ft | 26 kts | 38° |
| 2026-04-27 11:14 | 25.11594 | 102.95599 | 6901 ft | 6 kts | 38° |
| 2026-04-27 11:14 | 25.11599 | 102.95604 | 6901 ft | 4 kts | 38° |
| 2026-04-27 11:15 | 25.11627 | 102.95628 | 6901 ft | 8 kts | 38° |
| 2026-04-27 11:15 | 25.11657 | 102.95681 | 6902 ft | 7 kts | 89° |
| 2026-04-27 11:15 | 25.11638 | 102.95720 | 6917 ft | 4 kts | 127° |
| 2026-04-27 11:15 | 25.11621 | 102.95745 | 6920 ft | 7 kts | 127° |
| 2026-04-27 11:16 | 25.11596 | 102.95780 | 6919 ft | 5 kts | 129° |
| 2026-04-27 11:16 | 25.11568 | 102.95790 | 6920 ft | 5 kts | 184° |
| 2026-04-27 11:16 | 25.11530 | 102.95772 | 6913 ft | 7 kts | 209° |
| 2026-04-27 11:16 | 25.11490 | 102.95740 | 6912 ft | 8 kts | 218° |
| 2026-04-27 11:17 | 25.11408 | 102.95669 | 6913 ft | 33 kts | 218° |
| 2026-04-27 11:17 | 25.11048 | 102.95355 | 6917 ft | 97 kts | 218° |
| 2026-04-27 11:17 | 25.10369 | 102.94766 | 6920 ft | 150 kts | 218° |
| 2026-04-27 11:17 | 25.09467 | 102.93979 | 7347 ft | 165 kts | 218° |
| 2026-04-27 11:18 | 25.08594 | 102.93220 | 8240 ft | 159 kts | 220° |
| 2026-04-27 11:18 | 25.07653 | 102.92482 | 8708 ft | 178 kts | 216° |
| 2026-04-27 11:18 | 25.06359 | 102.92076 | 8967 ft | 212 kts | 185° |
| 2026-04-27 11:18 | 25.04859 | 102.92482 | 9514 ft | 231 kts | 163° |
| 2026-04-27 11:19 | 25.03334 | 102.93149 | 10123 ft | 240 kts | 162° |
| 2026-04-27 11:19 | 25.01743 | 102.93848 | 10600 ft | 256 kts | 162° |
| 2026-04-27 11:19 | 25.00022 | 102.94581 | 10922 ft | 282 kts | 162° |
| 2026-04-27 11:19 | 24.98080 | 102.95394 | 11259 ft | 307 kts | 162° |
| 2026-04-27 11:20 | 24.96008 | 102.96260 | 11626 ft | 329 kts | 162° |
| 2026-04-27 11:20 | 24.93805 | 102.97179 | 12076 ft | 346 kts | 162° |
| 2026-04-27 11:20 | 24.91525 | 102.98128 | 12688 ft | 354 kts | 162° |
| 2026-04-27 11:20 | 24.89199 | 102.99095 | 13346 ft | 362 kts | 162° |
| 2026-04-27 11:21 | 24.86820 | 103.00083 | 14015 ft | 368 kts | 162° |
| 2026-04-27 11:21 | 24.84411 | 103.01099 | 14690 ft | 373 kts | 161° |
| 2026-04-27 11:21 | 24.82069 | 103.02385 | 15387 ft | 380 kts | 151° |
| 2026-04-27 11:21 | 24.79962 | 103.04180 | 16060 ft | 388 kts | 139° |
| 2026-04-27 11:22 | 24.78212 | 103.06470 | 16732 ft | 396 kts | 126° |
| 2026-04-27 11:22 | 24.76970 | 103.09011 | 17365 ft | 403 kts | 115° |
| 2026-04-27 11:22 | 24.76005 | 103.11717 | 17961 ft | 409 kts | 112° |
| 2026-04-27 11:22 | 24.75010 | 103.14667 | 18576 ft | 413 kts | 112° |
| 2026-04-27 11:23 | 24.73999 | 103.17641 | 19162 ft | 417 kts | 112° |
| 2026-04-27 11:23 | 24.72969 | 103.20636 | 19790 ft | 421 kts | 112° |
| 2026-04-27 11:23 | 24.71974 | 103.23512 | 20365 ft | 425 kts | 112° |
| 2026-04-27 11:23 | 24.71033 | 103.26222 | 20907 ft | 428 kts | 112° |
| 2026-04-27 11:24 | 24.70011 | 103.29156 | 21504 ft | 431 kts | 112° |
| 2026-04-27 11:24 | 24.68933 | 103.32248 | 22144 ft | 435 kts | 112° |
| 2026-04-27 11:24 | 24.67899 | 103.35208 | 22726 ft | 439 kts | 112° |
| 2026-04-27 11:24 | 24.66858 | 103.38188 | 23306 ft | 442 kts | 112° |
| 2026-04-27 11:25 | 24.65804 | 103.41202 | 23839 ft | 446 kts | 112° |
| 2026-04-27 11:25 | 24.64739 | 103.44245 | 24324 ft | 450 kts | 112° |
| 2026-04-27 11:25 | 24.63610 | 103.47467 | 24838 ft | 455 kts | 112° |
| 2026-04-27 11:25 | 24.62465 | 103.50728 | 25369 ft | 458 kts | 112° |
| 2026-04-27 11:26 | 24.61378 | 103.53828 | 25881 ft | 462 kts | 112° |
| 2026-04-27 11:26 | 24.60277 | 103.56966 | 26382 ft | 466 kts | 112° |
| 2026-04-27 11:26 | 24.59104 | 103.60302 | 26891 ft | 470 kts | 112° |
| 2026-04-27 11:26 | 24.57924 | 103.63657 | 27418 ft | 474 kts | 112° |
| 2026-04-27 11:27 | 24.56729 | 103.67051 | 27930 ft | 477 kts | 112° |
| 2026-04-27 11:27 | 24.55526 | 103.70464 | 28451 ft | 481 kts | 112° |
| 2026-04-27 11:27 | 24.54353 | 103.73911 | 28937 ft | 485 kts | 109° |
| 2026-04-27 11:27 | 24.53420 | 103.77498 | 29430 ft | 489 kts | 105° |
| 2026-04-27 11:28 | 24.52608 | 103.81134 | 29913 ft | 493 kts | 103° |
| 2026-04-27 11:28 | 24.51838 | 103.84836 | 30335 ft | 497 kts | 103° |
| 2026-04-27 11:28 | 24.51083 | 103.88545 | 30739 ft | 500 kts | 103° |
| 2026-04-27 11:28 | 24.50319 | 103.92283 | 31170 ft | 502 kts | 103° |
| 2026-04-27 11:29 | 24.49542 | 103.96031 | 31581 ft | 505 kts | 103° |
| 2026-04-27 11:29 | 24.48762 | 103.99742 | 32005 ft | 507 kts | 103° |
| 2026-04-27 11:29 | 24.47959 | 104.03516 | 32403 ft | 509 kts | 103° |
| 2026-04-27 11:29 | 24.47137 | 104.07352 | 32790 ft | 512 kts | 103° |
| 2026-04-27 11:30 | 24.46318 | 104.11169 | 33161 ft | 514 kts | 103° |
| 2026-04-27 11:30 | 24.45505 | 104.14950 | 33543 ft | 516 kts | 103° |
| 2026-04-27 11:30 | 24.44669 | 104.18840 | 33911 ft | 518 kts | 103° |
| 2026-04-27 11:30 | 24.43849 | 104.22647 | 34176 ft | 522 kts | 103° |
| 2026-04-27 11:31 | 24.42999 | 104.26588 | 34397 ft | 525 kts | 103° |
| 2026-04-27 11:31 | 24.42169 | 104.30435 | 34767 ft | 525 kts | 103° |
| 2026-04-27 11:31 | 24.41329 | 104.34317 | 35155 ft | 525 kts | 103° |
| 2026-04-27 11:31 | 24.40485 | 104.38220 | 35530 ft | 525 kts | 103° |
| 2026-04-27 11:32 | 24.39641 | 104.42114 | 35904 ft | 525 kts | 104° |
| 2026-04-27 11:32 | 24.38796 | 104.46011 | 36232 ft | 525 kts | 104° |
| 2026-04-27 11:32 | 24.37952 | 104.49899 | 36609 ft | 525 kts | 104° |
| 2026-04-27 11:32 | 24.37106 | 104.53789 | 36951 ft | 524 kts | 104° |
| 2026-04-27 11:33 | 24.36262 | 104.57667 | 37301 ft | 524 kts | 104° |
| 2026-04-27 11:33 | 24.35412 | 104.61563 | 37674 ft | 523 kts | 104° |
| 2026-04-27 11:33 | 24.34565 | 104.65440 | 38011 ft | 523 kts | 104° |
| 2026-04-27 11:33 | 24.33719 | 104.69312 | 38338 ft | 523 kts | 104° |
| 2026-04-27 11:34 | 24.32870 | 104.73191 | 38617 ft | 523 kts | 104° |
| 2026-04-27 11:34 | 24.32023 | 104.77054 | 38883 ft | 522 kts | 104° |
| 2026-04-27 11:34 | 24.31172 | 104.80933 | 39121 ft | 522 kts | 104° |
| 2026-04-27 11:34 | 24.30326 | 104.84783 | 39352 ft | 523 kts | 104° |
| 2026-04-27 11:35 | 24.29477 | 104.88642 | 39594 ft | 522 kts | 104° |
| 2026-04-27 11:35 | 24.28620 | 104.92535 | 39858 ft | 522 kts | 104° |
| 2026-04-27 11:35 | 24.27766 | 104.96407 | 40096 ft | 522 kts | 104° |
| 2026-04-27 11:35 | 24.26915 | 105.00261 | 40314 ft | 522 kts | 104° |
| 2026-04-27 11:36 | 24.26063 | 105.04113 | 40522 ft | 522 kts | 104° |
| 2026-04-27 11:36 | 24.25208 | 105.07979 | 40795 ft | 518 kts | 104° |
| 2026-04-27 11:36 | 24.23517 | 105.15609 | 40894 ft | 513 kts | 104° |
| 2026-04-27 11:37 | 24.21829 | 105.23192 | 40897 ft | 513 kts | 104° |
| 2026-04-27 11:37 | 24.20032 | 105.30755 | 40895 ft | 513 kts | 106° |
| 2026-04-27 11:38 | 24.18170 | 105.38288 | 40892 ft | 512 kts | 106° |
| 2026-04-27 11:38 | 24.16332 | 105.45774 | 40892 ft | 512 kts | 105° |
| 2026-04-27 11:39 | 24.14496 | 105.53312 | 40892 ft | 512 kts | 105° |
| 2026-04-27 11:39 | 24.12662 | 105.60839 | 40892 ft | 512 kts | 105° |
| 2026-04-27 11:40 | 24.10820 | 105.68378 | 40889 ft | 512 kts | 105° |
| 2026-04-27 11:40 | 24.09085 | 105.75937 | 40889 ft | 513 kts | 103° |
| 2026-04-27 11:41 | 24.07632 | 105.83580 | 40894 ft | 513 kts | 102° |
| 2026-04-27 11:41 | 24.06189 | 105.91226 | 40889 ft | 513 kts | 102° |
| 2026-04-27 11:42 | 24.04691 | 105.98873 | 40889 ft | 514 kts | 103° |
| 2026-04-27 11:42 | 24.03167 | 106.06505 | 40885 ft | 514 kts | 103° |
| 2026-04-27 11:43 | 24.01634 | 106.14143 | 40888 ft | 515 kts | 103° |
| 2026-04-27 11:43 | 24.00096 | 106.21799 | 40888 ft | 515 kts | 103° |
| 2026-04-27 11:44 | 23.98559 | 106.29439 | 40888 ft | 514 kts | 103° |
| 2026-04-27 11:44 | 23.97018 | 106.37078 | 40889 ft | 514 kts | 103° |
| 2026-04-27 11:45 | 23.95735 | 106.43421 | 40891 ft | 514 kts | 103° |
| 2026-04-27 11:45 | 23.93929 | 106.52324 | 40895 ft | 514 kts | 103° |
| 2026-04-27 11:46 | 23.92472 | 106.59962 | 40897 ft | 514 kts | 97° |
| 2026-04-27 11:46 | 23.91809 | 106.67745 | 40897 ft | 514 kts | 94° |
| 2026-04-27 11:47 | 23.91294 | 106.75558 | 40898 ft | 515 kts | 94° |
| 2026-04-27 11:47 | 23.90793 | 106.83373 | 40904 ft | 516 kts | 94° |
| 2026-04-27 11:48 | 23.90277 | 106.91204 | 40906 ft | 517 kts | 94° |
| 2026-04-27 11:48 | 23.89748 | 106.99032 | 40912 ft | 517 kts | 94° |
| 2026-04-27 11:49 | 23.89217 | 107.06817 | 40909 ft | 518 kts | 94° |
| 2026-04-27 11:49 | 23.88678 | 107.14657 | 40913 ft | 518 kts | 94° |
| 2026-04-27 11:50 | 23.88132 | 107.22573 | 40917 ft | 519 kts | 94° |
| 2026-04-27 11:50 | 23.87583 | 107.30435 | 40918 ft | 519 kts | 94° |
| 2026-04-27 11:51 | 23.87035 | 107.38240 | 40920 ft | 520 kts | 94° |
| 2026-04-27 11:52 | 23.86197 | 107.50055 | 40924 ft | 520 kts | 94° |
| 2026-04-27 11:52 | 23.85635 | 107.57919 | 40925 ft | 520 kts | 94° |
| 2026-04-27 11:53 | 23.85068 | 107.65792 | 40933 ft | 520 kts | 94° |
| 2026-04-27 11:53 | 23.84497 | 107.73665 | 40937 ft | 520 kts | 94° |
| 2026-04-27 11:54 | 23.83922 | 107.81547 | 40936 ft | 520 kts | 94° |
| 2026-04-27 11:54 | 23.83378 | 107.89423 | 40941 ft | 520 kts | 93° |
| 2026-04-27 11:55 | 23.82997 | 107.97311 | 40933 ft | 520 kts | 92° |
| 2026-04-27 11:55 | 23.82638 | 108.05163 | 40936 ft | 521 kts | 92° |
| 2026-04-27 11:56 | 23.82246 | 108.13105 | 40931 ft | 521 kts | 92° |
| 2026-04-27 11:56 | 23.81836 | 108.20956 | 40945 ft | 521 kts | 92° |
| 2026-04-27 11:57 | 23.81391 | 108.28851 | 40946 ft | 522 kts | 93° |
| 2026-04-27 11:57 | 23.80938 | 108.36766 | 40948 ft | 522 kts | 93° |
| 2026-04-27 11:58 | 23.80485 | 108.44680 | 40946 ft | 522 kts | 92° |
| 2026-04-27 11:58 | 23.80108 | 108.51265 | 40951 ft | 523 kts | 92° |
| 2026-04-27 11:59 | 23.79652 | 108.59185 | 40947 ft | 523 kts | 92° |
| 2026-04-27 11:59 | 23.79191 | 108.67101 | 40948 ft | 523 kts | 92° |
| 2026-04-27 12:00 | 23.78725 | 108.75029 | 40954 ft | 524 kts | 92° |
| 2026-04-27 12:00 | 23.78254 | 108.82974 | 40952 ft | 524 kts | 92° |
| 2026-04-27 12:01 | 23.77779 | 108.90924 | 40959 ft | 525 kts | 92° |
| 2026-04-27 12:01 | 23.77427 | 108.96767 | 40957 ft | 525 kts | 92° |
| 2026-04-27 12:02 | 23.76934 | 109.04910 | 40957 ft | 526 kts | 92° |
| 2026-04-27 12:02 | 23.76428 | 109.12869 | 40945 ft | 527 kts | 94° |
| 2026-04-27 12:03 | 23.75142 | 109.20740 | 40956 ft | 528 kts | 101° |
| 2026-04-27 12:03 | 23.73578 | 109.28581 | 40955 ft | 528 kts | 102° |
| 2026-04-27 12:04 | 23.71973 | 109.36407 | 40957 ft | 528 kts | 102° |
| 2026-04-27 12:04 | 23.70376 | 109.44232 | 40962 ft | 528 kts | 102° |
| 2026-04-27 12:05 | 23.68788 | 109.52049 | 40959 ft | 529 kts | 102° |
| 2026-04-27 12:05 | 23.67195 | 109.59888 | 40970 ft | 528 kts | 102° |
| 2026-04-27 12:06 | 23.65598 | 109.67705 | 40980 ft | 528 kts | 102° |
| 2026-04-27 12:06 | 23.63983 | 109.75523 | 40975 ft | 528 kts | 102° |
| 2026-04-27 12:07 | 23.62375 | 109.83278 | 40980 ft | 528 kts | 102° |
| 2026-04-27 12:07 | 23.60756 | 109.91084 | 40978 ft | 528 kts | 102° |
| 2026-04-27 12:08 | 23.59133 | 109.98886 | 40987 ft | 528 kts | 102° |
| 2026-04-27 12:08 | 23.57504 | 110.06697 | 40985 ft | 527 kts | 102° |
| 2026-04-27 12:09 | 23.55876 | 110.14489 | 40982 ft | 527 kts | 102° |
| 2026-04-27 12:09 | 23.54242 | 110.22286 | 40982 ft | 527 kts | 102° |
| 2026-04-27 12:10 | 23.52607 | 110.30066 | 40988 ft | 527 kts | 102° |
| 2026-04-27 12:10 | 23.50968 | 110.37856 | 40985 ft | 527 kts | 102° |
| 2026-04-27 12:11 | 23.49378 | 110.45642 | 40981 ft | 527 kts | 102° |
| 2026-04-27 12:11 | 23.47804 | 110.53439 | 40984 ft | 526 kts | 102° |
| 2026-04-27 12:12 | 23.46222 | 110.61222 | 40984 ft | 526 kts | 102° |
| 2026-04-27 12:12 | 23.44633 | 110.68995 | 40985 ft | 526 kts | 102° |
| 2026-04-27 12:13 | 23.43035 | 110.76765 | 40991 ft | 526 kts | 102° |
| 2026-04-27 12:13 | 23.41391 | 110.84541 | 40994 ft | 526 kts | 102° |
| 2026-04-27 12:14 | 23.39753 | 110.92234 | 40991 ft | 526 kts | 102° |
| 2026-04-27 12:14 | 23.38100 | 111.00014 | 40994 ft | 527 kts | 102° |
| 2026-04-27 12:15 | 23.36452 | 111.07767 | 40998 ft | 527 kts | 102° |
| 2026-04-27 12:15 | 23.34796 | 111.15552 | 40996 ft | 527 kts | 102° |
| 2026-04-27 12:16 | 23.33184 | 111.23333 | 40991 ft | 527 kts | 101° |
| 2026-04-27 12:16 | 23.31609 | 111.31113 | 40993 ft | 527 kts | 101° |
| 2026-04-27 12:17 | 23.30025 | 111.38889 | 40704 ft | 526 kts | 101° |
| 2026-04-27 12:17 | 23.29228 | 111.42772 | 40461 ft | 526 kts | 101° |
| 2026-04-27 12:17 | 23.28428 | 111.46658 | 40221 ft | 526 kts | 101° |
| 2026-04-27 12:17 | 23.27629 | 111.50535 | 39982 ft | 527 kts | 101° |
| 2026-04-27 12:18 | 23.26827 | 111.54426 | 39741 ft | 527 kts | 101° |
| 2026-04-27 12:18 | 23.26017 | 111.58319 | 39513 ft | 528 kts | 101° |
| 2026-04-27 12:18 | 23.25474 | 111.60888 | 39355 ft | 528 kts | 101° |
| 2026-04-27 12:18 | 23.24365 | 111.66095 | 39057 ft | 528 kts | 101° |
| 2026-04-27 12:19 | 23.23535 | 111.69981 | 38828 ft | 529 kts | 101° |
| 2026-04-27 12:19 | 23.22703 | 111.73880 | 38598 ft | 529 kts | 101° |
| 2026-04-27 12:19 | 23.21872 | 111.77779 | 38340 ft | 529 kts | 101° |
| 2026-04-27 12:19 | 23.21044 | 111.81671 | 38067 ft | 529 kts | 101° |
| 2026-04-27 12:20 | 23.20221 | 111.85563 | 37795 ft | 529 kts | 101° |
| 2026-04-27 12:20 | 23.19405 | 111.89478 | 37549 ft | 530 kts | 101° |
| 2026-04-27 12:20 | 23.18597 | 111.93380 | 37293 ft | 530 kts | 101° |
| 2026-04-27 12:20 | 23.17789 | 111.97287 | 37033 ft | 531 kts | 101° |
| 2026-04-27 12:21 | 23.16980 | 112.01192 | 36788 ft | 531 kts | 102° |
| 2026-04-27 12:21 | 23.16162 | 112.05121 | 36535 ft | 531 kts | 102° |
| 2026-04-27 12:21 | 23.15347 | 112.09031 | 36293 ft | 532 kts | 102° |
| 2026-04-27 12:21 | 23.14528 | 112.12946 | 35895 ft | 529 kts | 102° |
| 2026-04-27 12:22 | 23.13714 | 112.16833 | 35224 ft | 529 kts | 102° |
| 2026-04-27 12:22 | 23.12894 | 112.20740 | 34418 ft | 531 kts | 102° |
| 2026-04-27 12:22 | 23.12072 | 112.24655 | 33545 ft | 534 kts | 102° |
| 2026-04-27 12:22 | 23.11254 | 112.28539 | 32803 ft | 533 kts | 103° |
| 2026-04-27 12:23 | 23.10432 | 112.32439 | 32211 ft | 528 kts | 103° |
| 2026-04-27 12:23 | 23.09614 | 112.36316 | 31616 ft | 523 kts | 103° |
| 2026-04-27 12:23 | 23.08805 | 112.40144 | 31025 ft | 519 kts | 103° |
| 2026-04-27 12:23 | 23.07999 | 112.43955 | 30429 ft | 516 kts | 103° |
| 2026-04-27 12:24 | 23.07232 | 112.47745 | 29790 ft | 512 kts | 99° |
| 2026-04-27 12:24 | 23.06833 | 112.51566 | 29178 ft | 507 kts | 95° |
| 2026-04-27 12:24 | 23.06525 | 112.55361 | 28594 ft | 502 kts | 94° |
| 2026-04-27 12:24 | 23.06260 | 112.59125 | 28019 ft | 497 kts | 94° |
| 2026-04-27 12:25 | 23.06017 | 112.62848 | 27437 ft | 493 kts | 94° |
| 2026-04-27 12:25 | 23.05781 | 112.66542 | 26877 ft | 488 kts | 94° |
| 2026-04-27 12:25 | 23.05544 | 112.70201 | 26298 ft | 484 kts | 94° |
| 2026-04-27 12:25 | 23.05306 | 112.73832 | 25727 ft | 480 kts | 94° |
| 2026-04-27 12:26 | 23.05065 | 112.77429 | 25155 ft | 476 kts | 95° |
| 2026-04-27 12:26 | 23.04821 | 112.81009 | 24577 ft | 473 kts | 95° |
| 2026-04-27 12:26 | 23.04578 | 112.84564 | 24002 ft | 470 kts | 95° |
| 2026-04-27 12:26 | 23.04335 | 112.88088 | 23411 ft | 468 kts | 95° |
| 2026-04-27 12:27 | 23.04093 | 112.91591 | 22753 ft | 464 kts | 95° |
| 2026-04-27 12:27 | 23.03851 | 112.95068 | 22171 ft | 459 kts | 95° |
| 2026-04-27 12:27 | 23.03611 | 112.98506 | 21587 ft | 454 kts | 95° |
| 2026-04-27 12:27 | 23.03375 | 113.01899 | 21001 ft | 450 kts | 95° |
| 2026-04-27 12:28 | 23.03139 | 113.05270 | 20415 ft | 445 kts | 95° |
| 2026-04-27 12:28 | 23.02905 | 113.08602 | 19912 ft | 440 kts | 95° |
| 2026-04-27 12:28 | 23.02675 | 113.11876 | 19668 ft | 430 kts | 95° |
| 2026-04-27 12:28 | 23.02447 | 113.15112 | 19619 ft | 429 kts | 95° |
| 2026-04-27 12:29 | 23.02010 | 113.18313 | 19612 ft | 429 kts | 106° |
| 2026-04-27 12:29 | 23.00958 | 113.21321 | 19609 ft | 425 kts | 117° |
| 2026-04-27 12:29 | 22.99675 | 113.24174 | 19154 ft | 419 kts | 119° |
| 2026-04-27 12:29 | 22.98341 | 113.27009 | 18299 ft | 425 kts | 119° |
| 2026-04-27 12:30 | 22.96999 | 113.29829 | 17448 ft | 427 kts | 119° |
| 2026-04-27 12:30 | 22.95620 | 113.32725 | 16739 ft | 425 kts | 119° |
| 2026-04-27 12:30 | 22.94281 | 113.35537 | 15893 ft | 412 kts | 119° |
| 2026-04-27 12:30 | 22.92978 | 113.38269 | 14669 ft | 405 kts | 120° |
| 2026-04-27 12:31 | 22.91697 | 113.40956 | 13423 ft | 394 kts | 120° |
| 2026-04-27 12:31 | 22.90458 | 113.43542 | 12875 ft | 380 kts | 120° |
| 2026-04-27 12:31 | 22.88987 | 113.45861 | 12385 ft | 369 kts | 136° |
| 2026-04-27 12:31 | 22.86975 | 113.47402 | 12004 ft | 353 kts | 158° |
| 2026-04-27 12:32 | 22.84657 | 113.48027 | 11757 ft | 337 kts | 178° |
| 2026-04-27 12:32 | 22.82369 | 113.47972 | 11554 ft | 323 kts | 186° |
| 2026-04-27 12:32 | 22.80175 | 113.47787 | 11328 ft | 311 kts | 186° |
| 2026-04-27 12:32 | 22.78050 | 113.47610 | 11144 ft | 300 kts | 186° |
| 2026-04-27 12:33 | 22.76018 | 113.47449 | 10946 ft | 290 kts | 186° |
| 2026-04-27 12:33 | 22.74009 | 113.47297 | 10734 ft | 283 kts | 185° |
| 2026-04-27 12:33 | 22.72058 | 113.47151 | 10420 ft | 280 kts | 186° |
| 2026-04-27 12:33 | 22.70118 | 113.47003 | 10069 ft | 279 kts | 186° |
| 2026-04-27 12:34 | 22.68192 | 113.46857 | 9753 ft | 277 kts | 186° |
| 2026-04-27 12:34 | 22.66255 | 113.46708 | 9345 ft | 281 kts | 185° |
| 2026-04-27 12:34 | 22.64301 | 113.46651 | 8982 ft | 282 kts | 176° |
| 2026-04-27 12:34 | 22.62444 | 113.47301 | 8643 ft | 285 kts | 149° |
| 2026-04-27 12:35 | 22.61126 | 113.48839 | 8500 ft | 279 kts | 121° |
| 2026-04-27 12:35 | 22.60628 | 113.50826 | 8376 ft | 272 kts | 93° |
| 2026-04-27 12:35 | 22.60639 | 113.52832 | 8259 ft | 262 kts | 92° |
| 2026-04-27 12:35 | 22.60905 | 113.54719 | 8125 ft | 257 kts | 70° |
| 2026-04-27 12:36 | 22.61975 | 113.56210 | 7921 ft | 253 kts | 34° |
| 2026-04-27 12:36 | 22.63614 | 113.56796 | 7702 ft | 248 kts | 3° |
| 2026-04-27 12:36 | 22.65332 | 113.56856 | 7449 ft | 246 kts | 359° |
| 2026-04-27 12:36 | 22.67040 | 113.56861 | 7200 ft | 246 kts | 359° |
| 2026-04-27 12:37 | 22.68744 | 113.56884 | 6950 ft | 244 kts | 360° |
| 2026-04-27 12:37 | 22.70429 | 113.56923 | 6729 ft | 242 kts | 1° |
| 2026-04-27 12:37 | 22.72106 | 113.56972 | 6482 ft | 240 kts | 1° |
| 2026-04-27 12:37 | 22.73771 | 113.57023 | 6248 ft | 238 kts | 1° |
| 2026-04-27 12:38 | 22.75429 | 113.57079 | 6002 ft | 239 kts | 1° |
| 2026-04-27 12:38 | 22.77084 | 113.57125 | 5773 ft | 238 kts | 1° |
| 2026-04-27 12:38 | 22.78737 | 113.57169 | 5514 ft | 237 kts | 2° |
| 2026-04-27 12:38 | 22.80387 | 113.57218 | 5287 ft | 236 kts | 1° |
| 2026-04-27 12:39 | 22.82021 | 113.57348 | 5044 ft | 235 kts | 12° |
| 2026-04-27 12:39 | 22.83438 | 113.58147 | 4821 ft | 230 kts | 48° |
| 2026-04-27 12:39 | 22.84310 | 113.59560 | 4605 ft | 226 kts | 64° |
| 2026-04-27 12:39 | 22.85008 | 113.61064 | 4366 ft | 225 kts | 66° |
| 2026-04-27 12:40 | 22.85705 | 113.62580 | 4189 ft | 225 kts | 65° |
| 2026-04-27 12:40 | 22.86280 | 113.64156 | 3962 ft | 225 kts | 81° |
| 2026-04-27 12:40 | 22.86122 | 113.65799 | 3896 ft | 216 kts | 116° |
| 2026-04-27 12:40 | 22.85175 | 113.66995 | 3720 ft | 214 kts | 145° |
| 2026-04-27 12:41 | 22.83873 | 113.67779 | 3427 ft | 216 kts | 156° |
| 2026-04-27 12:41 | 22.82532 | 113.68458 | 3307 ft | 210 kts | 154° |
| 2026-04-27 12:41 | 22.81250 | 113.69158 | 3226 ft | 202 kts | 153° |
| 2026-04-27 12:41 | 22.80037 | 113.69839 | 3133 ft | 191 kts | 152° |
| 2026-04-27 12:42 | 22.78862 | 113.70498 | 2843 ft | 188 kts | 153° |
| 2026-04-27 12:42 | 22.77697 | 113.71136 | 2567 ft | 187 kts | 154° |
| 2026-04-27 12:42 | 22.76541 | 113.71768 | 2310 ft | 182 kts | 154° |
| 2026-04-27 12:42 | 22.75438 | 113.72379 | 2085 ft | 177 kts | 153° |
| 2026-04-27 12:43 | 22.74347 | 113.72985 | 1808 ft | 175 kts | 157° |
| 2026-04-27 12:43 | 22.73313 | 113.73537 | 1614 ft | 157 kts | 152° |
| 2026-04-27 12:43 | 22.72392 | 113.74062 | 1412 ft | 143 kts | 153° |
| 2026-04-27 12:43 | 22.71545 | 113.74528 | 1244 ft | 131 kts | 153° |
| 2026-04-27 12:44 | 22.70750 | 113.74964 | 1085 ft | 129 kts | 152° |
| 2026-04-27 12:44 | 22.69945 | 113.75411 | 924 ft | 131 kts | 153° |
| 2026-04-27 12:44 | 22.69144 | 113.75849 | 725 ft | 129 kts | 154° |
| 2026-04-27 12:44 | 22.68342 | 113.76288 | 478 ft | 127 kts | 155° |
| 2026-04-27 12:45 | 22.67564 | 113.76721 | 352 ft | 127 kts | 152° |
| 2026-04-27 12:45 | 22.66787 | 113.77152 | 198 ft | 126 kts | 157° |
| 2026-04-27 12:45 | 22.65994 | 113.77594 | 92 ft | 132 kts | 152° |
| 2026-04-27 12:45 | 22.65185 | 113.78024 | 27 ft | 123 kts | 155° |
| 2026-04-27 12:46 | 22.64573 | 113.78358 | 23 ft | 70 kts | 153° |
| 2026-04-27 12:46 | 22.64324 | 113.78496 | 22 ft | 16 kts | 153° |
| 2026-04-27 12:46 | 22.64233 | 113.78568 | 22 ft | 17 kts | 137° |
| 2026-04-27 12:46 | 22.64174 | 113.78631 | 22 ft | 19 kts | 130° |
| 2026-04-27 12:47 | 22.64100 | 113.78754 | 22 ft | 19 kts | 112° |
| 2026-04-27 12:47 | 22.64115 | 113.78803 | 22 ft | 4 kts | 20° |
| 2026-04-27 12:47 | 22.64164 | 113.78798 | 22 ft | 11 kts | 344° |
| 2026-04-27 12:47 | 22.64243 | 113.78760 | 22 ft | 14 kts | 334° |
| 2026-04-27 12:48 | 22.64341 | 113.78708 | 22 ft | 18 kts | 334° |
| 2026-04-27 12:48 | 22.64460 | 113.78643 | 22 ft | 21 kts | 332° |
| 2026-04-27 12:48 | 22.64596 | 113.78567 | 22 ft | 24 kts | 333° |
| 2026-04-27 12:48 | 22.64751 | 113.78482 | 22 ft | 26 kts | 334° |
| 2026-04-27 12:49 | 22.64923 | 113.78392 | 22 ft | 29 kts | 334° |
| 2026-04-27 12:49 | 22.65110 | 113.78294 | 22 ft | 31 kts | 334° |
| 2026-04-27 12:49 | 22.65311 | 113.78188 | 22 ft | 33 kts | 333° |
| 2026-04-27 12:49 | 22.65460 | 113.78107 | 22 ft | 22 kts | 329° |
| 2026-04-27 12:50 | 22.65601 | 113.78018 | 22 ft | 25 kts | 331° |
| 2026-04-27 12:50 | 22.65761 | 113.77927 | 22 ft | 27 kts | 333° |
| 2026-04-27 12:50 | 22.65936 | 113.77829 | 24 ft | 27 kts | 332° |
| 2026-04-27 12:50 | 22.66071 | 113.77820 | 22 ft | 14 kts | 11° |
| 2026-04-27 12:51 | 22.66225 | 113.77976 | 23 ft | 18 kts | 63° |
| 2026-04-27 12:51 | 22.66285 | 113.78103 | 22 ft | 21 kts | 63° |
| 2026-04-27 12:51 | 22.66353 | 113.78251 | 22 ft | 23 kts | 71° |
| 2026-04-27 12:52 | 22.66266 | 113.78362 | 22 ft | 22 kts | 153° |
| 2026-04-27 12:52 | 22.66184 | 113.78406 | 22 ft | 0 kts | 154° |
| 2026-04-27 12:53 | 22.66179 | 113.78409 | 22 ft | 5 kts | 153° |
| 2026-04-27 12:53 | 22.66113 | 113.78445 | 22 ft | 14 kts | 153° |
| 2026-04-27 12:54 | 22.66012 | 113.78500 | 22 ft | 18 kts | 153° |
| 2026-04-27 12:54 | 22.65892 | 113.78565 | 22 ft | 21 kts | 153° |
| 2026-04-27 12:54 | 22.65757 | 113.78639 | 22 ft | 22 kts | 153° |
| 2026-04-27 12:54 | 22.65634 | 113.78706 | 22 ft | 18 kts | 153° |
| 2026-04-27 12:55 | 22.65516 | 113.78770 | 22 ft | 20 kts | 153° |
| 2026-04-27 12:55 | 22.65382 | 113.78843 | 22 ft | 23 kts | 153° |
| 2026-04-27 12:55 | 22.65234 | 113.78925 | 22 ft | 25 kts | 153° |
| 2026-04-27 12:55 | 22.65075 | 113.79013 | 22 ft | 26 kts | 153° |
| 2026-04-27 12:56 | 22.64910 | 113.79104 | 22 ft | 28 kts | 153° |
| 2026-04-27 12:56 | 22.64772 | 113.79181 | 22 ft | 22 kts | 153° |
| 2026-04-27 12:56 | 22.64627 | 113.79261 | 22 ft | 23 kts | 153° |
| 2026-04-27 12:56 | 22.64543 | 113.79307 | 22 ft | 13 kts | 153° |
| 2026-04-27 12:57 | 22.64460 | 113.79364 | 22 ft | 14 kts | 127° |
| 2026-04-27 12:57 | 22.64470 | 113.79454 | 22 ft | 7 kts | 73° |
| 2026-04-27 12:57 | 22.64467 | 113.79511 | 22 ft | 9 kts | 115° |
| 2026-04-27 12:57 | 22.64445 | 113.79545 | 22 ft | 6 kts | 129° |
| 2026-04-27 12:58 | 22.64432 | 113.79561 | 22 ft | 3 kts | 131° |
| 2026-04-27 12:58 | 22.64423 | 113.79572 | 23 ft | 0 kts | 131° |
| 2026-04-27 12:58 | 22.64419 | 113.79577 | 22 ft | 0 kts | 131° |
| 2026-04-27 12:58 | 22.64415 | 113.79581 | 22 ft | 1 kts | 132° |
| 2026-04-27 12:59 | 22.64409 | 113.79589 | 22 ft | 0 kts | 132° |